createdAt,value
2018-06-05T00:00:46.532Z,60.58
2018-06-05T00:01:25.536Z,60.68
2018-06-05T00:02:25.560Z,60.68
2018-06-05T00:03:25.582Z,60.68
2018-06-05T00:04:25.604Z,60.58
2018-06-05T00:05:25.625Z,60.68
2018-06-05T00:06:46.664Z,60.77
2018-06-05T00:07:25.678Z,60.68
2018-06-05T00:08:25.694Z,60.68
2018-06-05T00:09:25.721Z,60.58
2018-06-05T00:10:25.739Z,60.77
2018-06-05T00:11:25.761Z,60.68
2018-06-05T00:12:46.818Z,60.38
2018-06-05T00:13:25.809Z,60.58
2018-06-05T00:14:25.832Z,60.38
2018-06-05T00:15:25.851Z,60.19
2018-06-05T00:16:25.875Z,60.38
2018-06-05T00:17:25.898Z,60.48
2018-06-05T00:18:46.936Z,60.38
2018-06-05T00:19:25.943Z,60.48
2018-06-05T00:20:25.966Z,60.77
2018-06-05T00:21:25.987Z,60.58
2018-06-05T00:22:26.009Z,60.48
2018-06-05T00:23:26.035Z,60.48
2018-06-05T00:24:47.074Z,60.48
2018-06-05T00:25:26.078Z,60.48
2018-06-05T00:26:26.102Z,60.58
2018-06-05T00:27:26.125Z,60.58
2018-06-05T00:28:26.150Z,60.68
2018-06-05T00:29:26.177Z,60.10
2018-06-05T00:30:47.211Z,59.80
2018-06-05T00:31:26.215Z,60.19
2018-06-05T00:32:26.238Z,60.00
2018-06-05T00:33:26.258Z,59.90
2018-06-05T00:34:26.281Z,60.28
2018-06-05T00:35:26.304Z,59.90
2018-06-05T00:36:47.343Z,59.90
2018-06-05T00:37:26.351Z,60.10
2018-06-05T00:38:26.370Z,60.28
2018-06-05T00:39:26.393Z,59.90
2018-06-05T00:40:26.416Z,60.10
2018-06-05T00:41:26.442Z,60.19
2018-06-05T00:42:47.476Z,60.19
2018-06-05T00:43:26.484Z,60.10
2018-06-05T00:44:26.507Z,60.28
2018-06-05T00:45:26.531Z,60.19
2018-06-05T00:46:26.555Z,60.28
2018-06-05T00:47:26.575Z,60.10
2018-06-05T00:48:47.614Z,60.10
2018-06-05T00:49:26.620Z,60.00
2018-06-05T00:50:26.643Z,60.10
2018-06-05T00:51:26.663Z,60.00
2018-06-05T00:52:26.689Z,59.90
2018-06-05T00:53:26.713Z,60.00
2018-06-05T00:54:47.752Z,59.90
2018-06-05T00:55:26.754Z,59.90
2018-06-05T00:56:26.783Z,59.90
2018-06-05T00:57:26.801Z,59.90
2018-06-05T00:58:26.824Z,60.10
2018-06-05T00:59:26.843Z,60.28
2018-06-05T01:00:47.885Z,60.38
2018-06-05T01:01:26.890Z,60.19
2018-06-05T01:02:26.912Z,60.10
2018-06-05T01:03:26.938Z,60.10
2018-06-05T01:04:26.959Z,60.10
2018-06-05T01:05:26.980Z,60.28
2018-06-05T01:06:48.019Z,60.19
2018-06-05T01:07:27.026Z,60.19
2018-06-05T01:08:27.049Z,60.10
2018-06-05T01:09:27.078Z,59.90
2018-06-05T01:10:27.092Z,60.16
2018-06-05T01:11:27.115Z,60.19
2018-06-05T01:12:48.156Z,59.80
2018-06-05T01:13:27.163Z,59.80
2018-06-05T01:14:27.183Z,59.80
2018-06-05T01:15:27.205Z,59.80
2018-06-05T01:16:27.231Z,59.80
2018-06-05T01:17:27.254Z,59.80
2018-06-05T01:18:48.293Z,60.19
2018-06-05T01:19:27.297Z,59.90
2018-06-05T01:20:27.324Z,59.90
2018-06-05T01:21:27.345Z,59.80
2018-06-05T01:22:27.362Z,60.19
2018-06-05T01:23:27.388Z,59.80
2018-06-05T01:24:48.426Z,59.80
2018-06-05T01:25:27.431Z,59.90
2018-06-05T01:26:27.453Z,60.10
2018-06-05T01:27:27.478Z,60.10
2018-06-05T01:28:27.504Z,60.10
2018-06-05T01:29:27.539Z,60.10
2018-06-05T01:30:48.560Z,60.10
2018-06-05T01:31:27.566Z,59.97
2018-06-05T01:32:27.592Z,60.38
2018-06-05T01:33:27.618Z,60.58
2018-06-05T01:34:27.635Z,60.55
2018-06-05T01:35:27.664Z,60.77
2018-06-05T01:36:48.696Z,60.58
2018-06-05T01:37:27.702Z,60.68
2018-06-05T01:38:27.737Z,60.58
2018-06-05T01:39:27.746Z,60.38
2018-06-05T01:40:27.774Z,60.45
2018-06-05T01:41:27.791Z,60.48
2018-06-05T01:42:48.836Z,60.48
2018-06-05T01:43:27.841Z,60.58
2018-06-05T01:44:27.862Z,60.35
2018-06-05T01:45:27.884Z,60.48
2018-06-05T01:46:27.904Z,60.48
2018-06-05T01:47:27.934Z,60.28
2018-06-05T01:48:48.971Z,60.48
2018-06-05T01:49:27.973Z,60.48
2018-06-05T01:50:28.000Z,60.48
2018-06-05T01:51:28.017Z,60.68
2018-06-05T01:52:28.049Z,60.58
2018-06-05T01:53:28.063Z,60.38
2018-06-05T01:54:49.120Z,60.48
2018-06-05T01:55:28.108Z,60.28
2018-06-05T01:56:28.137Z,60.28
2018-06-05T01:57:28.162Z,60.38
2018-06-05T01:58:28.174Z,60.00
2018-06-05T01:59:28.199Z,60.28
2018-06-05T02:00:49.237Z,60.10
2018-06-05T02:01:28.242Z,60.10
2018-06-05T02:02:28.265Z,59.78
2018-06-05T02:03:28.289Z,60.06
2018-06-05T02:04:28.309Z,60.10
2018-06-05T02:05:28.336Z,60.00
2018-06-05T02:06:49.372Z,60.10
2018-06-05T02:07:28.377Z,60.06
2018-06-05T02:08:28.402Z,60.28
2018-06-05T02:09:28.426Z,60.06
2018-06-05T02:10:28.449Z,60.10
2018-06-05T02:11:28.465Z,60.16
2018-06-05T02:12:49.512Z,60.26
2018-06-05T02:13:28.515Z,59.80
2018-06-05T02:14:28.535Z,60.10
2018-06-05T02:15:28.558Z,59.71
2018-06-05T02:16:28.581Z,59.71
2018-06-05T02:17:28.605Z,59.90
2018-06-05T02:18:49.641Z,59.71
2018-06-05T02:19:28.649Z,59.90
2018-06-05T02:20:28.672Z,60.00
2018-06-05T02:21:28.693Z,59.61
2018-06-05T02:22:28.717Z,59.90
2018-06-05T02:23:28.738Z,59.80
2018-06-05T02:24:49.781Z,59.80
2018-06-05T02:25:28.788Z,59.68
2018-06-05T02:26:28.803Z,59.58
2018-06-05T02:27:28.833Z,59.52
2018-06-05T02:28:28.852Z,59.61
2018-06-05T02:29:28.875Z,59.80
2018-06-05T02:30:49.918Z,59.71
2018-06-05T02:31:28.923Z,59.52
2018-06-05T02:32:28.941Z,59.52
2018-06-05T02:33:28.970Z,59.48
2018-06-05T02:34:28.985Z,59.71
2018-06-05T02:35:29.010Z,59.52
2018-06-05T02:36:50.048Z,59.03
2018-06-05T02:37:29.056Z,59.39
2018-06-05T02:38:29.077Z,59.13
2018-06-05T02:39:29.098Z,59.03
2018-06-05T02:40:29.124Z,59.00
2018-06-05T02:41:29.144Z,58.81
2018-06-05T02:42:50.182Z,59.03
2018-06-05T02:43:29.193Z,58.81
2018-06-05T02:44:29.213Z,58.75
2018-06-05T02:45:29.236Z,59.03
2018-06-05T02:46:29.256Z,58.94
2018-06-05T02:47:29.285Z,59.03
2018-06-05T02:48:50.317Z,59.03
2018-06-05T02:49:29.328Z,59.20
2018-06-05T02:50:29.345Z,58.72
2018-06-05T02:51:29.372Z,58.94
2018-06-05T02:52:29.392Z,58.94
2018-06-05T02:53:29.416Z,58.84
2018-06-05T02:54:50.454Z,59.03
2018-06-05T02:55:29.458Z,59.13
2018-06-05T02:56:29.480Z,58.91
2018-06-05T02:57:29.513Z,58.75
2018-06-05T02:58:29.523Z,58.91
2018-06-05T02:59:29.547Z,58.62
2018-06-05T03:00:50.587Z,58.45
2018-06-05T03:01:29.599Z,58.62
2018-06-05T03:02:29.625Z,58.42
2018-06-05T03:03:29.637Z,58.52
2018-06-05T03:04:29.661Z,58.81
2018-06-05T03:05:29.683Z,58.81
2018-06-05T03:06:50.721Z,58.62
2018-06-05T03:07:29.731Z,58.81
2018-06-05T03:08:29.752Z,58.52
2018-06-05T03:09:29.774Z,58.42
2018-06-05T03:10:29.796Z,58.33
2018-06-05T03:11:29.818Z,58.52
2018-06-05T03:12:50.856Z,58.52
2018-06-05T03:13:29.869Z,58.81
2018-06-05T03:14:29.886Z,58.42
2018-06-05T03:15:29.907Z,58.52
2018-06-05T03:16:29.936Z,58.23
2018-06-05T03:17:29.953Z,58.33
2018-06-05T03:18:51.003Z,58.52
2018-06-05T03:19:29.999Z,58.42
2018-06-05T03:20:30.020Z,58.42
2018-06-05T03:21:30.044Z,58.42
2018-06-05T03:22:30.064Z,58.52
2018-06-05T03:23:30.086Z,58.14
2018-06-05T03:24:51.132Z,58.14
2018-06-05T03:25:30.133Z,58.52
2018-06-05T03:26:30.154Z,58.42
2018-06-05T03:27:30.181Z,58.04
2018-06-05T03:28:30.200Z,57.94
2018-06-05T03:29:30.224Z,58.04
2018-06-05T03:30:51.261Z,57.94
2018-06-05T03:31:30.269Z,57.85
2018-06-05T03:32:30.289Z,57.94
2018-06-05T03:33:30.318Z,57.75
2018-06-05T03:34:30.342Z,57.65
2018-06-05T03:35:30.357Z,57.56
2018-06-05T03:36:51.400Z,57.65
2018-06-05T03:37:30.401Z,57.27
2018-06-05T03:38:30.423Z,57.07
2018-06-05T03:39:30.448Z,57.27
2018-06-05T03:40:30.473Z,57.46
2018-06-05T03:41:30.495Z,56.88
2018-06-05T03:42:51.527Z,57.07
2018-06-05T03:43:30.534Z,56.98
2018-06-05T03:44:30.566Z,56.98
2018-06-05T03:45:30.583Z,56.88
2018-06-05T03:46:30.602Z,56.79
2018-06-05T03:47:30.634Z,56.59
2018-06-05T03:48:51.667Z,56.69
2018-06-05T03:49:30.670Z,57.07
2018-06-05T03:50:30.693Z,56.98
2018-06-05T03:51:30.714Z,56.30
2018-06-05T03:52:30.736Z,56.11
2018-06-05T03:53:30.761Z,56.11
2018-06-05T03:54:51.798Z,56.21
2018-06-05T03:55:30.804Z,56.21
2018-06-05T03:56:30.875Z,56.30
2018-06-05T03:57:30.851Z,56.40
2018-06-05T03:58:30.870Z,56.30
2018-06-05T03:59:30.893Z,56.49
2018-06-05T04:00:51.936Z,56.40
2018-06-05T04:01:30.939Z,56.30
2018-06-05T04:02:30.960Z,56.30
2018-06-05T04:03:30.993Z,56.49
2018-06-05T04:04:31.010Z,56.49
2018-06-05T04:05:31.028Z,55.92
2018-06-05T04:06:52.063Z,55.82
2018-06-05T04:07:31.074Z,56.11
2018-06-05T04:08:31.097Z,56.11
2018-06-05T04:09:31.121Z,55.92
2018-06-05T04:10:31.139Z,55.82
2018-06-05T04:11:31.161Z,56.01
2018-06-05T04:12:52.203Z,55.92
2018-06-05T04:13:31.206Z,55.73
2018-06-05T04:14:31.229Z,55.54
2018-06-05T04:15:31.257Z,55.82
2018-06-05T04:16:31.272Z,55.82
2018-06-05T04:17:31.297Z,55.63
2018-06-05T04:18:52.331Z,55.44
2018-06-05T04:19:31.342Z,55.73
2018-06-05T04:20:31.364Z,55.82
2018-06-05T04:21:31.386Z,55.73
2018-06-05T04:22:31.409Z,55.82
2018-06-05T04:23:31.430Z,55.82
2018-06-05T04:24:52.469Z,55.82
2018-06-05T04:25:31.476Z,55.82
2018-06-05T04:26:31.503Z,55.73
2018-06-05T04:27:31.562Z,55.73
2018-06-05T04:28:31.576Z,55.54
2018-06-05T04:29:31.565Z,55.73
2018-06-05T04:30:52.603Z,55.82
2018-06-05T04:31:31.612Z,55.54
2018-06-05T04:32:31.629Z,55.54
2018-06-05T04:33:31.654Z,56.30
2018-06-05T04:34:31.673Z,55.73
2018-06-05T04:35:31.697Z,55.73
2018-06-05T04:36:52.741Z,55.82
2018-06-05T04:37:31.747Z,55.82
2018-06-05T04:38:31.762Z,55.82
2018-06-05T04:39:31.794Z,56.01
2018-06-05T04:40:31.811Z,55.63
2018-06-05T04:41:31.833Z,55.24
2018-06-05T04:42:52.874Z,55.34
2018-06-05T04:43:31.880Z,55.54
2018-06-05T04:44:31.899Z,55.92
2018-06-05T04:45:31.924Z,55.82
2018-06-05T04:46:31.942Z,55.82
2018-06-05T04:47:31.966Z,55.24
2018-06-05T04:48:53.005Z,55.73
2018-06-05T04:49:32.016Z,55.92
2018-06-05T04:50:32.036Z,56.01
2018-06-05T04:51:32.056Z,55.63
2018-06-05T04:52:32.077Z,55.73
2018-06-05T04:53:32.101Z,55.82
2018-06-05T04:54:53.137Z,55.82
2018-06-05T04:55:32.144Z,55.54
2018-06-05T04:56:32.166Z,55.54
2018-06-05T04:57:32.190Z,55.73
2018-06-05T04:58:32.212Z,55.54
2018-06-05T04:59:32.236Z,55.24
2018-06-05T05:00:53.273Z,55.15
2018-06-05T05:01:32.278Z,55.24
2018-06-05T05:02:32.300Z,55.05
2018-06-05T05:03:32.325Z,55.44
2018-06-05T05:04:32.347Z,54.96
2018-06-05T05:05:32.369Z,55.24
2018-06-05T05:06:53.406Z,54.96
2018-06-05T05:07:32.415Z,55.15
2018-06-05T05:08:32.442Z,54.86
2018-06-05T05:09:32.467Z,55.05
2018-06-05T05:10:32.479Z,54.96
2018-06-05T05:11:32.521Z,54.76
2018-06-05T05:12:53.543Z,54.66
2018-06-05T05:13:32.559Z,54.76
2018-06-05T05:14:32.568Z,54.86
2018-06-05T05:15:32.602Z,54.57
2018-06-05T05:16:32.616Z,54.66
2018-06-05T05:17:32.636Z,54.66
2018-06-05T05:18:53.710Z,54.96
2018-06-05T05:19:32.691Z,54.76
2018-06-05T05:20:32.703Z,54.38
2018-06-05T05:21:32.728Z,54.96
2018-06-05T05:22:32.752Z,54.38
2018-06-05T05:23:32.775Z,54.38
2018-06-05T05:24:53.813Z,54.28
2018-06-05T05:25:32.815Z,54.09
2018-06-05T05:26:32.838Z,53.99
2018-06-05T05:27:32.860Z,54.18
2018-06-05T05:28:32.882Z,54.18
2018-06-05T05:29:32.907Z,54.28
2018-06-05T05:30:53.990Z,53.99
2018-06-05T05:31:32.949Z,54.09
2018-06-05T05:32:32.971Z,53.99
2018-06-05T05:33:32.998Z,53.89
2018-06-05T05:34:33.016Z,53.89
2018-06-05T05:35:33.052Z,53.70
2018-06-05T05:36:54.081Z,53.70
2018-06-05T05:37:33.086Z,53.61
2018-06-05T05:38:33.110Z,53.61
2018-06-05T05:39:33.130Z,53.73
2018-06-05T05:40:33.151Z,53.25
2018-06-05T05:41:33.176Z,53.41
2018-06-05T05:42:54.210Z,53.63
2018-06-05T05:43:33.220Z,53.63
2018-06-05T05:44:33.238Z,53.15
2018-06-05T05:45:33.264Z,53.05
2018-06-05T05:46:33.284Z,52.86
2018-06-05T05:47:33.308Z,52.95
2018-06-05T05:48:54.350Z,52.86
2018-06-05T05:49:33.353Z,52.67
2018-06-05T05:50:33.375Z,53.15
2018-06-05T05:51:33.398Z,53.05
2018-06-05T05:52:33.423Z,52.57
2018-06-05T05:53:33.445Z,52.57
2018-06-05T05:54:54.501Z,52.67
2018-06-05T05:55:33.491Z,52.76
2018-06-05T05:56:33.517Z,52.67
2018-06-05T05:57:33.534Z,52.47
2018-06-05T05:58:33.551Z,52.67
2018-06-05T05:59:33.577Z,52.67
2018-06-05T06:00:54.620Z,52.47
2018-06-05T06:01:33.620Z,52.47
2018-06-05T06:02:33.645Z,52.47
2018-06-05T06:03:33.670Z,52.57
2018-06-05T06:04:33.691Z,52.47
2018-06-05T06:05:33.711Z,52.19
2018-06-05T06:06:54.753Z,52.47
2018-06-05T06:07:33.760Z,52.47
2018-06-05T06:08:33.781Z,52.37
2018-06-05T06:09:33.804Z,52.19
2018-06-05T06:10:33.832Z,52.19
2018-06-05T06:11:33.850Z,52.09
2018-06-05T06:12:54.893Z,52.28
2018-06-05T06:13:33.892Z,52.28
2018-06-05T06:14:33.921Z,52.19
2018-06-05T06:15:33.940Z,52.57
2018-06-05T06:16:33.962Z,52.47
2018-06-05T06:17:33.984Z,52.37
2018-06-05T06:18:55.021Z,52.37
2018-06-05T06:19:34.028Z,52.57
2018-06-05T06:20:34.060Z,52.47
2018-06-05T06:21:34.075Z,52.47
2018-06-05T06:22:34.125Z,52.47
2018-06-05T06:23:34.121Z,51.99
2018-06-05T06:24:55.160Z,52.09
2018-06-05T06:25:34.164Z,51.99
2018-06-05T06:26:34.190Z,52.09
2018-06-05T06:27:34.207Z,51.89
2018-06-05T06:28:34.237Z,51.99
2018-06-05T06:29:34.256Z,51.89
2018-06-05T06:30:55.295Z,51.99
2018-06-05T06:31:34.304Z,52.09
2018-06-05T06:32:34.322Z,52.37
2018-06-05T06:33:34.345Z,52.19
2018-06-05T06:34:34.375Z,52.19
2018-06-05T06:35:34.389Z,51.99
2018-06-05T06:36:55.427Z,51.89
2018-06-05T06:37:34.435Z,51.99
2018-06-05T06:38:34.471Z,51.99
2018-06-05T06:39:34.478Z,52.09
2018-06-05T06:40:34.508Z,52.28
2018-06-05T06:41:34.526Z,52.37
2018-06-05T06:42:55.570Z,52.28
2018-06-05T06:43:34.570Z,52.16
2018-06-05T06:44:34.593Z,52.25
2018-06-05T06:45:34.618Z,52.16
2018-06-05T06:46:34.639Z,52.16
2018-06-05T06:47:34.670Z,52.16
2018-06-05T06:48:55.747Z,52.28
2018-06-05T06:49:34.710Z,52.47
2018-06-05T06:50:34.728Z,52.35
2018-06-05T06:51:34.753Z,52.47
2018-06-05T06:52:34.770Z,52.67
2018-06-05T06:53:34.818Z,52.37
2018-06-05T06:54:55.840Z,51.89
2018-06-05T06:55:34.917Z,51.99
2018-06-05T06:56:34.871Z,51.89
2018-06-05T06:57:34.901Z,52.28
2018-06-05T06:58:34.912Z,51.80
2018-06-05T06:59:34.936Z,52.09
2018-06-05T07:00:56.261Z,51.41
2018-06-05T07:01:34.980Z,51.61
2018-06-05T07:02:35.002Z,51.41
2018-06-05T07:03:35.141Z,51.53
2018-06-05T07:04:35.052Z,51.34
2018-06-05T07:05:35.080Z,51.44
2018-06-05T07:06:56.112Z,51.34
2018-06-05T07:07:35.120Z,51.34
2018-06-05T07:08:35.140Z,51.25
2018-06-05T07:09:35.163Z,51.05
2018-06-05T07:10:35.181Z,50.67
2018-06-05T07:11:35.208Z,50.57
2018-06-05T07:12:56.257Z,50.86
2018-06-05T07:13:35.270Z,50.67
2018-06-05T07:14:35.285Z,50.67
2018-06-05T07:15:35.295Z,50.76
2018-06-05T07:16:35.339Z,50.57
2018-06-05T07:17:35.348Z,50.47
2018-06-05T07:18:56.380Z,50.38
2018-06-05T07:19:35.401Z,50.18
2018-06-05T07:20:35.413Z,49.99
2018-06-05T07:21:35.434Z,50.28
2018-06-05T07:22:35.453Z,50.38
2018-06-05T07:23:35.479Z,49.90
2018-06-05T07:24:56.519Z,49.80
2018-06-05T07:25:35.525Z,49.99
2018-06-05T07:26:35.552Z,49.63
2018-06-05T07:27:35.601Z,49.82
2018-06-05T07:28:35.594Z,49.92
2018-06-05T07:29:35.627Z,50.11
2018-06-05T07:30:56.657Z,50.21
2018-06-05T07:31:35.662Z,50.01
2018-06-05T07:32:35.688Z,49.44
2018-06-05T07:33:35.714Z,49.53
2018-06-05T07:34:35.732Z,49.92
2018-06-05T07:35:35.762Z,49.53
2018-06-05T07:36:56.804Z,49.53
2018-06-05T07:37:35.809Z,49.63
2018-06-05T07:38:35.822Z,49.05
2018-06-05T07:39:35.844Z,49.05
2018-06-05T07:40:35.877Z,49.15
2018-06-05T07:41:35.901Z,49.15
2018-06-05T07:42:56.929Z,49.15
2018-06-05T07:43:35.940Z,49.15
2018-06-05T07:44:35.964Z,49.15
2018-06-05T07:45:35.985Z,49.05
2018-06-05T07:46:36.007Z,48.86
2018-06-05T07:47:36.030Z,48.76
2018-06-05T07:48:57.069Z,48.76
2018-06-05T07:49:36.072Z,48.49
2018-06-05T07:50:36.099Z,48.59
2018-06-05T07:51:36.123Z,48.69
2018-06-05T07:52:36.148Z,48.49
2018-06-05T07:53:36.184Z,48.59
2018-06-05T07:54:57.205Z,48.30
2018-06-05T07:55:36.215Z,48.49
2018-06-05T07:56:36.232Z,47.72
2018-06-05T07:57:36.264Z,47.72
2018-06-05T07:58:36.290Z,48.01
2018-06-05T07:59:36.313Z,47.94
2018-06-05T08:00:57.350Z,47.74
2018-06-05T08:01:36.367Z,47.65
2018-06-05T08:02:36.378Z,47.55
2018-06-05T08:03:36.402Z,47.45
2018-06-05T08:04:36.425Z,47.26
2018-06-05T08:05:36.449Z,47.07
2018-06-05T08:06:57.486Z,47.36
2018-06-05T08:07:36.495Z,47.16
2018-06-05T08:08:36.543Z,47.38
2018-06-05T08:09:36.543Z,47.00
2018-06-05T08:10:36.587Z,46.80
2018-06-05T08:11:36.603Z,46.51
2018-06-05T08:12:57.624Z,46.42
2018-06-05T08:13:36.659Z,46.42
2018-06-05T08:14:36.673Z,46.70
2018-06-05T08:15:37.348Z,46.32
2018-06-05T08:16:36.724Z,46.22
2018-06-05T08:17:36.728Z,46.51
2018-06-05T08:18:57.779Z,46.53
2018-06-05T08:19:36.786Z,46.51
2018-06-05T08:20:36.839Z,45.66
2018-06-05T08:21:37.382Z,45.76
2018-06-05T08:22:36.881Z,45.57
2018-06-05T08:23:36.876Z,45.66
2018-06-05T08:24:57.920Z,45.66
2018-06-05T08:25:36.945Z,45.66
2018-06-05T08:26:36.952Z,45.95
2018-06-05T08:27:36.976Z,45.37
2018-06-05T08:28:36.996Z,45.37
2018-06-05T08:29:37.020Z,45.37
2018-06-05T08:30:58.058Z,45.57
2018-06-05T08:31:37.061Z,45.66
2018-06-05T08:32:37.087Z,45.66
2018-06-05T08:33:37.110Z,45.95
2018-06-05T08:34:37.139Z,45.66
2018-06-05T08:35:37.159Z,45.57
2018-06-05T08:36:58.207Z,45.66
2018-06-05T08:37:37.208Z,45.83
2018-06-05T08:38:37.225Z,46.42
2018-06-05T08:39:37.268Z,46.22
2018-06-05T08:40:37.279Z,45.66
2018-06-05T08:41:37.326Z,45.66
2018-06-05T08:42:58.363Z,46.15
2018-06-05T08:43:37.352Z,46.44
2018-06-05T08:44:37.375Z,45.66
2018-06-05T08:45:37.404Z,45.66
2018-06-05T08:46:37.430Z,46.15
2018-06-05T08:47:37.450Z,46.15
2018-06-05T08:48:58.499Z,46.25
2018-06-05T08:49:37.500Z,45.86
2018-06-05T08:50:37.552Z,45.37
2018-06-05T08:51:37.544Z,45.76
2018-06-05T08:52:37.569Z,45.66
2018-06-05T08:53:37.624Z,45.86
2018-06-05T08:54:58.638Z,45.37
2018-06-05T08:55:37.647Z,45.37
2018-06-05T08:56:37.672Z,45.47
2018-06-05T08:57:37.750Z,45.47
2018-06-05T08:58:38.005Z,45.37
2018-06-05T08:59:37.743Z,45.47
2018-06-05T09:00:58.778Z,45.37
2018-06-05T09:01:37.787Z,45.08
2018-06-05T09:02:37.807Z,45.37
2018-06-05T09:03:37.832Z,46.05
2018-06-05T09:04:37.856Z,45.47
2018-06-05T09:05:37.882Z,45.08
2018-06-05T09:06:58.917Z,45.28
2018-06-05T09:07:37.928Z,45.01
2018-06-05T09:08:38.000Z,45.28
2018-06-05T09:09:37.982Z,44.98
2018-06-05T09:10:38.000Z,45.08
2018-06-05T09:11:38.070Z,45.28
2018-06-05T09:12:59.069Z,44.81
2018-06-05T09:13:38.069Z,45.10
2018-06-05T09:14:38.097Z,44.91
2018-06-05T09:15:38.123Z,44.98
2018-06-05T09:16:38.193Z,45.01
2018-06-05T09:17:38.178Z,44.89
2018-06-05T09:18:59.211Z,44.98
2018-06-05T09:19:38.219Z,45.08
2018-06-05T09:20:38.266Z,45.08
2018-06-05T09:21:38.294Z,45.18
2018-06-05T09:22:38.292Z,44.98
2018-06-05T09:23:38.320Z,44.79
2018-06-05T09:24:59.402Z,44.89
2018-06-05T09:25:38.365Z,45.08
2018-06-05T09:26:38.396Z,44.91
2018-06-05T09:27:38.417Z,44.62
2018-06-05T09:28:38.444Z,44.70
2018-06-05T09:29:38.469Z,45.01
2018-06-05T09:30:59.570Z,44.43
2018-06-05T09:31:38.576Z,44.33
2018-06-05T09:32:38.540Z,44.23
2018-06-05T09:33:38.559Z,44.23
2018-06-05T09:34:38.585Z,44.43
2018-06-05T09:35:38.610Z,44.43
2018-06-05T09:36:59.665Z,44.43
2018-06-05T09:37:38.658Z,44.33
2018-06-05T09:38:38.692Z,44.23
2018-06-05T09:39:38.713Z,44.12
2018-06-05T09:40:38.737Z,44.33
2018-06-05T09:41:38.755Z,44.33
2018-06-05T09:42:59.795Z,44.53
2018-06-05T09:43:38.817Z,44.60
2018-06-05T09:44:38.834Z,44.70
2018-06-05T09:45:38.847Z,44.60
2018-06-05T09:46:38.879Z,44.60
2018-06-05T09:47:38.901Z,44.70
2018-06-05T09:48:59.941Z,44.89
2018-06-05T09:49:38.945Z,44.60
2018-06-05T09:50:38.972Z,44.60
2018-06-05T09:51:38.998Z,45.08
2018-06-05T09:52:39.020Z,45.08
2018-06-05T09:53:39.044Z,44.98
2018-06-05T09:55:00.150Z,44.79
2018-06-05T09:55:39.093Z,44.50
2018-06-05T09:56:39.116Z,45.37
2018-06-05T09:57:39.175Z,45.18
2018-06-05T09:58:39.171Z,45.18
2018-06-05T09:59:39.196Z,45.28
2018-06-05T10:01:00.234Z,45.28
2018-06-05T10:01:39.239Z,45.28
2018-06-05T10:02:39.261Z,45.37
2018-06-05T10:03:39.285Z,45.93
2018-06-05T10:04:39.311Z,45.28
2018-06-05T10:05:39.344Z,45.86
2018-06-05T10:07:00.412Z,45.76
2018-06-05T10:07:39.386Z,45.37
2018-06-05T10:08:39.406Z,45.18
2018-06-05T10:09:39.431Z,45.37
2018-06-05T10:10:39.458Z,45.28
2018-06-05T10:11:39.492Z,45.57
2018-06-05T10:13:00.520Z,45.93
2018-06-05T10:13:39.543Z,45.74
2018-06-05T10:14:39.585Z,45.35
2018-06-05T10:15:39.601Z,45.25
2018-06-05T10:16:39.639Z,45.74
2018-06-05T10:17:39.631Z,45.64
2018-06-05T10:19:00.676Z,45.64
2018-06-05T10:19:39.675Z,45.45
2018-06-05T10:20:39.699Z,45.83
2018-06-05T10:21:39.726Z,45.64
2018-06-05T10:22:39.747Z,46.51
2018-06-05T10:23:39.766Z,46.32
2018-06-05T10:25:00.807Z,46.42
2018-06-05T10:25:39.828Z,46.12
2018-06-05T10:26:39.849Z,46.32
2018-06-05T10:27:39.861Z,46.22
2018-06-05T10:28:39.899Z,46.51
2018-06-05T10:29:39.908Z,46.42
2018-06-05T10:31:00.967Z,46.61
2018-06-05T10:31:39.958Z,46.49
2018-06-05T10:32:39.991Z,46.42
2018-06-05T10:33:40.006Z,46.49
2018-06-05T10:34:40.037Z,46.30
2018-06-05T10:35:40.052Z,46.42
2018-06-05T10:37:01.137Z,46.51
2018-06-05T10:37:40.107Z,46.51
2018-06-05T10:38:40.127Z,46.49
2018-06-05T10:39:40.151Z,46.39
2018-06-05T10:40:40.180Z,46.61
2018-06-05T10:41:40.201Z,46.51
2018-06-05T10:43:01.236Z,46.22
2018-06-05T10:43:40.249Z,46.58
2018-06-05T10:44:40.273Z,46.49
2018-06-05T10:45:40.291Z,46.58
2018-06-05T10:46:40.365Z,46.39
2018-06-05T10:47:40.338Z,46.58
2018-06-05T10:49:01.384Z,46.30
2018-06-05T10:49:40.397Z,46.39
2018-06-05T10:50:40.410Z,46.68
2018-06-05T10:51:40.562Z,46.51
2018-06-05T10:52:40.460Z,46.58
2018-06-05T10:53:40.505Z,46.49
2018-06-05T10:55:01.521Z,46.39
2018-06-05T10:55:40.527Z,46.88
2018-06-05T10:56:40.552Z,47.26
2018-06-05T10:57:40.583Z,46.39
2018-06-05T10:58:40.601Z,46.88
2018-06-05T10:59:40.623Z,46.88
2018-06-05T11:01:01.669Z,47.07
2018-06-05T11:01:40.674Z,46.97
2018-06-05T11:02:40.694Z,46.88
2018-06-05T11:03:40.720Z,46.97
2018-06-05T11:04:40.760Z,46.88
2018-06-05T11:05:40.776Z,46.68
2018-06-05T11:07:01.809Z,46.78
2018-06-05T11:07:40.815Z,46.97
2018-06-05T11:08:40.856Z,47.07
2018-06-05T11:09:40.875Z,46.39
2018-06-05T11:10:40.883Z,46.39
2018-06-05T11:11:40.909Z,46.97
2018-06-05T11:13:01.954Z,47.16
2018-06-05T11:13:40.963Z,47.07
2018-06-05T11:14:40.984Z,46.97
2018-06-05T11:15:41.000Z,46.88
2018-06-05T11:16:41.243Z,46.88
2018-06-05T11:17:41.052Z,46.78
2018-06-05T11:19:02.090Z,46.78
2018-06-05T11:19:41.103Z,46.97
2018-06-05T11:20:41.124Z,46.97
2018-06-05T11:21:41.141Z,47.45
2018-06-05T11:22:41.170Z,47.26
2018-06-05T11:23:41.247Z,46.88
2018-06-05T11:25:02.234Z,47.07
2018-06-05T11:25:41.243Z,47.36
2018-06-05T11:26:41.262Z,47.26
2018-06-05T11:27:41.284Z,47.26
2018-06-05T11:28:41.316Z,47.36
2018-06-05T11:29:41.357Z,47.55
2018-06-05T11:31:02.375Z,47.26
2018-06-05T11:31:41.382Z,47.55
2018-06-05T11:32:41.403Z,47.36
2018-06-05T11:33:41.432Z,47.45
2018-06-05T11:34:41.450Z,48.03
2018-06-05T11:35:41.475Z,47.84
2018-06-05T11:37:02.512Z,47.74
2018-06-05T11:37:41.526Z,47.84
2018-06-05T11:38:41.549Z,47.84
2018-06-05T11:39:41.591Z,47.84
2018-06-05T11:40:41.615Z,47.74
2018-06-05T11:41:41.628Z,47.65
2018-06-05T11:43:02.660Z,47.84
2018-06-05T11:43:41.674Z,47.84
2018-06-05T11:44:41.687Z,48.03
2018-06-05T11:45:41.716Z,47.94
2018-06-05T11:46:41.742Z,48.03
2018-06-05T11:47:41.758Z,47.84
2018-06-05T11:49:02.827Z,48.03
2018-06-05T11:49:41.863Z,47.74
2018-06-05T11:50:41.839Z,48.03
2018-06-05T11:51:41.848Z,47.84
2018-06-05T11:52:41.871Z,48.03
2018-06-05T11:53:41.897Z,47.94
2018-06-05T11:55:02.963Z,48.23
2018-06-05T11:55:41.954Z,47.74
2018-06-05T11:56:41.977Z,47.74
2018-06-05T11:57:42.000Z,47.74
2018-06-05T11:58:42.029Z,48.13
2018-06-05T11:59:42.035Z,48.03
2018-06-05T12:01:03.084Z,48.03
2018-06-05T12:01:42.192Z,47.55
2018-06-05T12:02:42.114Z,47.55
2018-06-05T12:03:42.240Z,47.84
2018-06-05T12:04:42.462Z,47.65
2018-06-05T12:05:42.188Z,47.55
2018-06-05T12:07:03.233Z,47.94
2018-06-05T12:07:42.249Z,47.84
2018-06-05T12:08:42.278Z,47.74
2018-06-05T12:09:42.310Z,48.13
2018-06-05T12:10:42.299Z,47.45
2018-06-05T12:11:42.332Z,47.65
2018-06-05T12:13:03.373Z,47.55
2018-06-05T12:13:42.380Z,47.84
2018-06-05T12:14:42.420Z,48.13
2018-06-05T12:15:42.418Z,47.94
2018-06-05T12:16:42.459Z,47.84
2018-06-05T12:17:42.477Z,48.13
2018-06-05T12:19:03.500Z,47.84
2018-06-05T12:19:42.539Z,47.94
2018-06-05T12:20:42.584Z,47.94
2018-06-05T12:21:42.593Z,47.84
2018-06-05T12:22:42.589Z,47.74
2018-06-05T12:23:42.611Z,47.94
2018-06-05T12:25:03.721Z,48.03
2018-06-05T12:25:42.699Z,47.45
2018-06-05T12:26:42.722Z,47.07
2018-06-05T12:27:42.736Z,47.26
2018-06-05T12:28:42.751Z,47.36
2018-06-05T12:29:42.745Z,47.26
2018-06-05T12:31:03.829Z,46.97
2018-06-05T12:31:42.813Z,47.26
2018-06-05T12:32:42.840Z,47.07
2018-06-05T12:33:42.846Z,47.16
2018-06-05T12:34:42.964Z,46.97
2018-06-05T12:35:42.918Z,46.97
2018-06-05T12:37:03.955Z,47.16
2018-06-05T12:37:43.059Z,47.07
2018-06-05T12:38:42.965Z,47.07
2018-06-05T12:39:42.990Z,46.88
2018-06-05T12:40:43.013Z,47.07
2018-06-05T12:41:43.073Z,46.97
2018-06-05T12:43:04.073Z,47.07
2018-06-05T12:43:43.089Z,46.88
2018-06-05T12:44:43.102Z,47.36
2018-06-05T12:45:43.127Z,47.36
2018-06-05T12:46:43.155Z,47.26
2018-06-05T12:47:43.176Z,47.36
2018-06-05T12:49:04.217Z,47.26
2018-06-05T12:49:43.369Z,46.97
2018-06-05T12:50:43.246Z,46.78
2018-06-05T12:51:43.273Z,46.78
2018-06-05T12:52:43.292Z,46.78